EDDH/HAM METAR and TAF weather

Enter ICAO airport designator
Station Type Date Time Source
EDDH METAR 2018/12/11 00:50 UTC NOAA

EDDH 110050Z 29012KT CAVOK 05/02 Q1013 NOSIG


Station Type Date Time Source
EDDH Decoded METAR 2018/12/11 00:50 UTC NOAA

Hamburg-Fuhlsbuettel, Germany (EDDH) 53-38N 010-00E 15M
Dec 10, 2018 - 07:50 PM EST / 2018.12.11 0050 UTC
Wind: from the WNW (290 degrees) at 14 MPH (12 KT):0
Visibility: greater than 7 mile(s):0
Temperature: 41 F (5 C)
Dew Point: 35 F (2 C)
Relative Humidity: 80%
Pressure (altimeter): 29.91 in. Hg (1013 hPa)
ob: EDDH 110050Z 29012KT CAVOK 05/02 Q1013 NOSIG
cycle: 1

Station Type Date Time Source
EDDH TAF 2018/12/10 18:27 UTC NOAA

TAF EDDH 101700Z 1018/1124 29010KT 9999 SCT030 PROB30
TEMPO 1018/1021 30015G25KT SHRA BKN014CB
BECMG 1113/1116 33005KT
TEMPO 1117/1124 BKN012


Example: see airport list